createdAt,value
2022-10-31T00:01:00.681Z,96059.44
2022-10-31T00:03:27.877Z,96059.31
2022-10-31T00:05:56.435Z,96057.72
2022-10-31T00:08:23.497Z,96058.97
2022-10-31T00:10:50.656Z,96061.03
2022-10-31T00:13:17.820Z,96063.09
2022-10-31T00:15:45.038Z,96054.16
2022-10-31T00:18:12.615Z,96058.28
2022-10-31T00:20:40.775Z,96058.38
2022-10-31T00:23:11.919Z,96058.81
2022-10-31T00:25:41.036Z,96056.41
2022-10-31T00:28:12.335Z,96063.31
2022-10-31T00:30:39.516Z,96059.63
2022-10-31T00:33:06.708Z,96055.16
2022-10-31T00:35:34.216Z,96050.09
2022-10-31T00:38:01.321Z,96052.25
2022-10-31T00:40:29.896Z,96048.81
2022-10-31T00:42:57.335Z,96052.03
2022-10-31T00:45:24.735Z,96050.78
2022-10-31T00:47:51.836Z,96048.94
2022-10-31T00:50:18.975Z,96046.97
2022-10-31T00:52:46.077Z,96049.84
2022-10-31T00:55:13.200Z,96050.09
2022-10-31T00:57:41.656Z,96050.66
2022-10-31T01:00:10.057Z,96051.91
2022-10-31T01:02:37.226Z,96046.47
2022-10-31T01:05:04.675Z,96041.44
2022-10-31T01:07:31.775Z,96042.25
2022-10-31T01:09:58.877Z,96042.81
2022-10-31T01:12:25.907Z,96042.00
2022-10-31T01:14:54.367Z,96036.84
2022-10-31T01:17:21.436Z,96044.22
2022-10-31T01:19:48.516Z,96038.53
2022-10-31T01:22:15.603Z,96034.94
2022-10-31T01:24:42.618Z,96031.47
2022-10-31T01:27:09.635Z,96034.03
2022-10-31T01:29:36.856Z,96028.63
2022-10-31T01:32:05.815Z,96042.53
2022-10-31T01:34:32.936Z,96039.06
2022-10-31T01:36:59.979Z,96034.63
2022-10-31T01:39:27.017Z,96033.88
2022-10-31T01:41:55.058Z,96026.03
2022-10-31T01:44:57.815Z,96034.91
2022-10-31T01:47:44.835Z,96025.09
2022-10-31T01:50:24.217Z,96026.38
2022-10-31T01:52:53.539Z,96020.59
2022-10-31T01:55:30.056Z,96024.75
2022-10-31T01:58:03.915Z,96017.25
2022-10-31T02:00:31.821Z,96016.50
2022-10-31T02:03:01.461Z,96012.47
2022-10-31T02:05:31.497Z,96009.72
2022-10-31T02:08:04.294Z,96016.78
2022-10-31T02:10:34.275Z,96008.25
2022-10-31T02:13:04.535Z,96008.06
2022-10-31T02:15:32.917Z,96009.66
2022-10-31T02:18:02.185Z,96007.22
2022-10-31T02:20:37.257Z,96003.09
2022-10-31T02:23:34.356Z,95991.78
2022-10-31T02:26:27.638Z,95996.34
2022-10-31T02:29:17.408Z,95992.34
2022-10-31T02:31:57.397Z,95988.44
2022-10-31T02:34:38.117Z,95989.81
2022-10-31T02:37:15.095Z,95985.28
2022-10-31T02:39:56.355Z,95985.75
2022-10-31T02:42:32.796Z,95984.97
2022-10-31T02:45:12.897Z,95984.28
2022-10-31T02:47:43.780Z,95978.41
2022-10-31T02:50:19.036Z,95975.50
2022-10-31T02:52:46.096Z,95979.34
2022-10-31T02:55:48.996Z,95975.88
2022-10-31T02:58:23.243Z,95971.44
2022-10-31T03:01:11.390Z,95973.84
2022-10-31T03:03:57.617Z,95979.09
2022-10-31T03:06:33.495Z,95979.91
2022-10-31T03:09:12.516Z,95972.78
2022-10-31T03:11:51.756Z,95970.59
2022-10-31T03:14:27.975Z,95972.09
2022-10-31T03:17:01.817Z,95968.69
2022-10-31T03:19:36.435Z,95968.41
2022-10-31T03:22:11.415Z,95968.75
2022-10-31T03:24:41.695Z,95966.41
2022-10-31T03:27:14.780Z,95963.19
2022-10-31T03:29:45.896Z,95960.34
2022-10-31T03:32:18.211Z,95970.59
2022-10-31T03:34:49.416Z,95961.84
2022-10-31T03:37:21.424Z,95957.56
2022-10-31T03:39:51.096Z,95971.72
2022-10-31T03:42:23.115Z,95957.94
2022-10-31T03:45:00.059Z,95963.13
2022-10-31T03:47:28.288Z,95963.69
2022-10-31T03:49:57.837Z,95961.53
2022-10-31T03:52:33.257Z,95964.97
2022-10-31T03:55:08.775Z,95962.41
2022-10-31T03:57:44.576Z,95967.97
2022-10-31T04:00:16.079Z,95964.63
2022-10-31T04:02:50.536Z,95968.31
2022-10-31T04:05:21.616Z,95976.38
2022-10-31T04:07:54.695Z,95968.88
2022-10-31T04:10:27.331Z,95967.47
2022-10-31T04:13:04.200Z,95970.81
2022-10-31T04:15:34.117Z,95971.41
2022-10-31T04:18:05.136Z,95960.34
2022-10-31T04:20:35.995Z,95959.94
2022-10-31T04:23:04.855Z,95962.66
2022-10-31T04:25:32.202Z,95953.00
2022-10-31T04:27:59.578Z,95958.91
2022-10-31T04:30:26.876Z,95958.56
2022-10-31T04:32:53.895Z,95956.59
2022-10-31T04:35:20.899Z,95954.19
2022-10-31T04:37:49.397Z,95957.66
2022-10-31T04:40:16.495Z,95959.94
2022-10-31T04:42:43.556Z,95959.16
2022-10-31T04:45:10.857Z,95958.59
2022-10-31T04:47:37.896Z,95957.78
2022-10-31T04:50:05.873Z,95957.06
2022-10-31T04:52:33.036Z,95949.59
2022-10-31T04:55:01.457Z,95948.06
2022-10-31T04:57:28.520Z,95953.84
2022-10-31T04:59:55.516Z,95960.91
2022-10-31T05:02:22.597Z,95967.31
2022-10-31T05:04:49.755Z,95969.28
2022-10-31T05:07:16.736Z,95966.75
2022-10-31T05:09:43.777Z,95963.16
2022-10-31T05:12:12.357Z,95967.19
2022-10-31T05:14:40.050Z,95955.00
2022-10-31T05:17:08.456Z,95956.84
2022-10-31T05:19:35.516Z,95952.22
2022-10-31T05:22:02.546Z,95953.38
2022-10-31T05:24:29.636Z,95954.56
2022-10-31T05:26:56.678Z,95951.09
2022-10-31T05:29:25.178Z,95948.06
2022-10-31T05:31:52.230Z,95940.38
2022-10-31T05:34:19.257Z,95944.19
2022-10-31T05:36:46.316Z,95940.81
2022-10-31T05:39:13.295Z,95936.94
2022-10-31T05:41:40.375Z,95940.59
2022-10-31T05:44:07.675Z,95940.97
2022-10-31T05:46:36.118Z,95932.66
2022-10-31T05:49:03.276Z,95929.88
2022-10-31T05:51:30.336Z,95928.28
2022-10-31T05:53:57.377Z,95935.66
2022-10-31T05:56:24.416Z,95931.97
2022-10-31T05:58:51.456Z,95937.38
2022-10-31T06:01:18.515Z,95937.84
2022-10-31T06:03:47.019Z,95939.34
2022-10-31T06:06:14.184Z,95944.19
2022-10-31T06:08:41.456Z,95944.19
2022-10-31T06:11:08.577Z,95943.81
2022-10-31T06:13:35.797Z,95955.72
2022-10-31T06:16:02.875Z,95951.34
2022-10-31T06:18:29.917Z,95944.75
2022-10-31T06:20:58.516Z,95945.00
2022-10-31T06:23:25.596Z,95954.69
2022-10-31T06:25:52.795Z,95950.66
2022-10-31T06:28:19.836Z,95954.19
2022-10-31T06:30:47.256Z,95947.31
2022-10-31T06:33:14.317Z,95949.84
2022-10-31T06:35:46.736Z,95947.19
2022-10-31T06:38:15.279Z,95951.91
2022-10-31T06:40:42.316Z,95958.84
2022-10-31T06:43:09.415Z,95951.13
2022-10-31T06:45:36.455Z,95951.13
2022-10-31T06:48:16.725Z,95964.47
2022-10-31T06:50:44.515Z,95963.66
2022-10-31T06:53:11.619Z,95970.25
2022-10-31T06:55:40.195Z,95972.06
2022-10-31T06:58:08.129Z,95970.34
2022-10-31T07:00:35.878Z,95987.72
2022-10-31T07:03:04.796Z,95981.75
2022-10-31T07:05:32.776Z,95974.13
2022-10-31T07:08:02.309Z,95987.72
2022-10-31T07:10:34.260Z,95992.66
2022-10-31T07:13:09.715Z,95988.84
2022-10-31T07:15:39.176Z,95982.19
2022-10-31T07:18:08.975Z,95983.13
2022-10-31T07:20:36.558Z,95977.69
2022-10-31T07:23:04.595Z,95979.97
2022-10-31T07:25:31.956Z,95979.19
2022-10-31T07:27:59.238Z,95989.81
2022-10-31T07:30:28.432Z,95990.22
2022-10-31T07:32:55.576Z,95990.47
2022-10-31T07:35:24.537Z,95994.03
2022-10-31T07:37:51.576Z,95998.75
2022-10-31T07:40:20.655Z,96003.81
2022-10-31T07:42:49.537Z,96000.59
2022-10-31T07:45:19.089Z,96001.03
2022-10-31T07:47:49.338Z,96001.25
2022-10-31T07:50:18.236Z,95995.38
2022-10-31T07:52:45.895Z,96004.34
2022-10-31T07:57:40.498Z,96025.44
2022-10-31T08:00:10.180Z,96016.78
2022-10-31T08:02:37.662Z,96013.34
2022-10-31T08:05:06.977Z,95997.44
2022-10-31T08:07:37.844Z,95987.06
2022-10-31T08:10:06.218Z,95985.22
2022-10-31T08:12:33.236Z,95981.59
2022-10-31T08:15:00.344Z,95985.34
2022-10-31T08:17:27.497Z,95984.00
2022-10-31T08:19:54.557Z,95979.25
2022-10-31T08:22:23.061Z,95981.69
2022-10-31T08:24:50.119Z,95980.25
2022-10-31T08:27:17.277Z,95963.06
2022-10-31T08:29:44.335Z,95965.56
2022-10-31T08:32:11.539Z,95956.47
2022-10-31T08:34:38.616Z,95952.13
2022-10-31T08:37:05.657Z,95949.03
2022-10-31T08:39:34.098Z,95942.75
2022-10-31T08:42:01.155Z,95949.13
2022-10-31T08:44:28.196Z,95944.59
2022-10-31T08:46:55.237Z,95943.03
2022-10-31T08:49:22.318Z,95946.03
2022-10-31T08:51:49.458Z,95928.97
2022-10-31T08:54:16.618Z,95928.56
2022-10-31T08:56:45.158Z,95927.06
2022-10-31T08:59:12.158Z,95929.59
2022-10-31T09:01:39.343Z,95927.78
2022-10-31T09:04:06.463Z,95934.69
2022-10-31T09:06:33.718Z,95925.09
2022-10-31T09:09:00.838Z,95921.78
2022-10-31T09:11:27.920Z,95918.66
2022-10-31T09:13:56.376Z,95915.28
2022-10-31T09:16:23.583Z,95918.13
2022-10-31T09:18:50.618Z,95919.81
2022-10-31T09:21:17.737Z,95928.44
2022-10-31T09:23:44.736Z,95927.38
2022-10-31T09:26:13.015Z,95921.03
2022-10-31T09:28:40.137Z,95912.69
2022-10-31T09:31:08.557Z,95922.03
2022-10-31T09:33:35.638Z,95921.00
2022-10-31T09:36:02.721Z,95916.69
2022-10-31T09:38:29.836Z,95912.94
2022-10-31T09:41:09.029Z,95904.13
2022-10-31T09:43:51.319Z,95906.81
2022-10-31T09:46:32.215Z,95898.81
2022-10-31T09:49:32.247Z,95900.66
2022-10-31T09:52:04.585Z,95887.91
2022-10-31T09:54:41.840Z,95892.47
2022-10-31T09:57:15.919Z,95884.97
2022-10-31T09:59:47.834Z,95884.69
2022-10-31T10:02:24.484Z,95879.31
2022-10-31T10:04:58.677Z,95877.19
2022-10-31T10:07:40.606Z,95878.25
2022-10-31T10:10:17.336Z,95872.13
2022-10-31T10:13:08.087Z,95881.47
2022-10-31T10:15:53.096Z,95875.34
2022-10-31T10:18:33.949Z,95872.13
2022-10-31T10:21:18.561Z,95867.84
2022-10-31T10:24:03.257Z,95878.00
2022-10-31T10:26:37.581Z,95886.81
2022-10-31T10:29:26.315Z,95889.72
2022-10-31T10:31:56.720Z,95890.53
2022-10-31T10:34:31.519Z,95893.47
2022-10-31T10:37:04.756Z,95895.53
2022-10-31T10:39:37.716Z,95883.44
2022-10-31T10:42:13.515Z,95878.56
2022-10-31T10:44:48.124Z,95888.88
2022-10-31T10:47:15.198Z,95867.75
2022-10-31T10:49:51.558Z,95877.09
2022-10-31T10:52:42.045Z,95873.16
2022-10-31T10:55:25.115Z,95878.22
2022-10-31T10:57:59.434Z,95877.13
2022-10-31T11:00:30.669Z,95869.34
2022-10-31T11:02:58.405Z,95858.91
2022-10-31T11:05:35.076Z,95849.50
2022-10-31T11:08:02.455Z,95847.13
2022-10-31T11:10:29.995Z,95851.91
2022-10-31T11:13:18.296Z,95845.81
2022-10-31T11:15:54.656Z,95835.78
2022-10-31T11:21:01.776Z,95837.25
2022-10-31T11:23:30.159Z,95836.69
2022-10-31T11:25:59.935Z,95836.81
2022-10-31T11:28:28.535Z,95825.91
2022-10-31T11:30:58.938Z,95822.72
2022-10-31T11:33:32.227Z,95810.16
2022-10-31T11:36:04.577Z,95809.63
2022-10-31T11:38:40.556Z,95800.81
2022-10-31T11:41:15.636Z,95798.16
2022-10-31T11:43:51.847Z,95798.16
2022-10-31T11:46:23.657Z,95790.44
2022-10-31T11:48:55.081Z,95788.56
2022-10-31T11:51:28.258Z,95786.94
2022-10-31T11:54:02.733Z,95789.34
2022-10-31T11:56:40.196Z,95787.47
2022-10-31T11:59:19.635Z,95782.66
2022-10-31T12:01:50.718Z,95787.41
2022-10-31T12:04:33.008Z,95779.47
2022-10-31T12:07:02.261Z,95776.53
2022-10-31T12:09:33.798Z,95782.13
2022-10-31T12:12:31.340Z,95778.63
2022-10-31T12:15:21.609Z,95760.72
2022-10-31T12:20:55.656Z,95749.84
2022-10-31T12:23:37.640Z,95748.47
2022-10-31T12:26:18.355Z,95746.28
2022-10-31T12:29:05.016Z,95752.72
2022-10-31T12:31:48.515Z,95753.03
2022-10-31T12:34:49.276Z,95752.47
2022-10-31T12:37:34.695Z,95755.09
2022-10-31T12:40:23.435Z,95758.56
2022-10-31T12:43:08.295Z,95750.03
2022-10-31T12:45:52.838Z,95736.66
2022-10-31T12:48:58.896Z,95726.53
2022-10-31T12:51:38.216Z,95731.00
2022-10-31T12:54:26.456Z,95721.88
2022-10-31T12:57:23.229Z,95714.97
2022-10-31T12:59:58.307Z,95713.66
2022-10-31T13:02:31.938Z,95709.94
2022-10-31T13:05:05.976Z,95709.41
2022-10-31T13:07:45.255Z,95701.47
2022-10-31T13:10:21.123Z,95692.34
2022-10-31T13:12:54.900Z,95692.84
2022-10-31T13:15:29.036Z,95692.03
2022-10-31T13:18:02.418Z,95685.91
2022-10-31T13:20:34.956Z,95691.75
2022-10-31T13:23:29.728Z,95690.69
2022-10-31T13:26:04.635Z,95687.75
2022-10-31T13:28:42.057Z,95682.91
2022-10-31T13:31:09.615Z,95678.66
2022-10-31T13:33:44.315Z,95671.47
2022-10-31T13:36:25.956Z,95673.31
2022-10-31T13:39:00.556Z,95678.31
2022-10-31T13:41:44.717Z,95671.69
2022-10-31T13:44:19.696Z,95661.84
2022-10-31T13:46:47.645Z,95666.91
2022-10-31T13:49:38.817Z,95671.63
2022-10-31T13:52:17.635Z,95672.66
2022-10-31T13:54:47.076Z,95663.78
2022-10-31T13:57:20.321Z,95663.25
2022-10-31T13:59:53.717Z,95671.22
2022-10-31T14:02:28.267Z,95667.69
2022-10-31T14:05:01.014Z,95672.25
2022-10-31T14:07:31.078Z,95660.25
2022-10-31T14:10:04.457Z,95658.16
2022-10-31T14:12:41.395Z,95658.19
2022-10-31T14:15:22.970Z,95659.56
2022-10-31T14:17:56.018Z,95662.47
2022-10-31T14:20:41.458Z,95665.50
2022-10-31T14:23:14.276Z,95668.69
2022-10-31T14:25:42.880Z,95661.78
2022-10-31T14:28:22.896Z,95672.44
2022-10-31T14:30:57.455Z,95667.34
2022-10-31T14:33:28.579Z,95673.53
2022-10-31T14:36:02.209Z,95674.72
2022-10-31T14:38:53.058Z,95674.28
2022-10-31T14:41:37.000Z,95670.06
2022-10-31T14:44:37.236Z,95669.00
2022-10-31T14:47:21.179Z,95685.50
2022-10-31T14:50:18.299Z,95681.00
2022-10-31T14:52:50.359Z,95681.81
2022-10-31T14:55:19.936Z,95680.72
2022-10-31T14:57:53.656Z,95675.91
2022-10-31T15:00:23.627Z,95677.00
2022-10-31T15:03:06.355Z,95666.31
2022-10-31T15:05:41.875Z,95667.91
2022-10-31T15:08:32.399Z,95678.44
2022-10-31T15:10:59.575Z,95676.75
2022-10-31T15:13:26.716Z,95670.59
2022-10-31T15:15:56.957Z,95673.63
2022-10-31T15:18:27.898Z,95668.59
2022-10-31T15:20:57.808Z,95672.69
2022-10-31T15:23:28.076Z,95675.53
2022-10-31T15:26:06.555Z,95664.53
2022-10-31T15:28:33.660Z,95669.81
2022-10-31T15:31:02.976Z,95664.72
2022-10-31T15:33:45.283Z,95667.06
2022-10-31T15:36:24.030Z,95671.31
2022-10-31T15:39:02.038Z,95674.50
2022-10-31T15:41:34.896Z,95677.66
2022-10-31T15:44:22.319Z,95680.56
2022-10-31T15:46:55.537Z,95673.09
2022-10-31T15:49:33.756Z,95667.00
2022-10-31T15:52:09.256Z,95683.97
2022-10-31T15:54:46.876Z,95674.59
2022-10-31T15:57:14.558Z,95689.75
2022-10-31T15:59:46.999Z,95683.06
2022-10-31T16:02:16.331Z,95682.97
2022-10-31T16:04:56.417Z,95673.09
2022-10-31T16:07:25.438Z,95675.47
2022-10-31T16:09:57.834Z,95671.69
2022-10-31T16:12:30.648Z,95677.00
2022-10-31T16:14:57.837Z,95688.41
2022-10-31T16:17:28.457Z,95675.06
2022-10-31T16:20:01.718Z,95668.63
2022-10-31T16:22:31.939Z,95678.72
2022-10-31T16:25:05.438Z,95685.50
2022-10-31T16:27:35.234Z,95688.88
2022-10-31T16:30:24.288Z,95678.44
2022-10-31T16:32:56.778Z,95681.25
2022-10-31T16:35:32.776Z,95686.25
2022-10-31T16:37:59.916Z,95685.97
2022-10-31T16:40:27.396Z,95702.41
2022-10-31T16:42:54.796Z,95698.66
2022-10-31T16:45:24.035Z,95710.81
2022-10-31T16:47:51.855Z,95707.59
2022-10-31T16:50:22.535Z,95713.66
2022-10-31T16:55:45.036Z,95718.81
2022-10-31T16:58:18.695Z,95710.56
2022-10-31T17:00:46.130Z,95718.19
2022-10-31T17:03:13.918Z,95710.16
2022-10-31T17:05:41.176Z,95708.50
2022-10-31T17:08:09.837Z,95697.59
2022-10-31T17:10:38.995Z,95697.63
2022-10-31T17:13:10.335Z,95713.19
2022-10-31T17:15:45.097Z,95699.00
2022-10-31T17:18:15.176Z,95704.09
2022-10-31T17:20:44.637Z,95697.84
2022-10-31T17:23:20.780Z,95708.88
2022-10-31T17:25:49.341Z,95703.41
2022-10-31T17:28:17.186Z,95711.59
2022-10-31T17:30:44.855Z,95704.94
2022-10-31T17:33:13.857Z,95711.25
2022-10-31T17:35:41.758Z,95709.25
2022-10-31T17:38:09.020Z,95710.47
2022-10-31T17:40:40.022Z,95694.97
2022-10-31T17:43:07.097Z,95697.06
2022-10-31T17:45:34.138Z,95704.44
2022-10-31T17:48:02.142Z,95708.38
2022-10-31T17:50:29.236Z,95702.41
2022-10-31T17:52:58.614Z,95695.19
2022-10-31T17:55:26.138Z,95705.47
2022-10-31T17:57:54.655Z,95716.56
2022-10-31T18:00:22.079Z,95701.94
2022-10-31T18:02:49.278Z,95704.38
2022-10-31T18:05:16.783Z,95698.72
2022-10-31T18:07:43.857Z,95695.50
2022-10-31T18:10:11.495Z,95692.63
2022-10-31T18:12:39.339Z,95696.16
2022-10-31T18:15:08.860Z,95686.66
2022-10-31T18:17:38.132Z,95686.41
2022-10-31T18:20:10.249Z,95682.00
2022-10-31T18:23:09.110Z,95683.03
2022-10-31T18:25:42.376Z,95673.56
2022-10-31T18:28:11.278Z,95671.88
2022-10-31T18:30:43.421Z,95663.81
2022-10-31T18:33:10.835Z,95666.31
2022-10-31T18:35:38.817Z,95669.47
2022-10-31T18:38:08.634Z,95665.88
2022-10-31T18:40:36.798Z,95668.16
2022-10-31T18:43:05.335Z,95670.25
2022-10-31T18:45:46.626Z,95664.34
2022-10-31T18:48:17.394Z,95669.81
2022-10-31T18:50:45.037Z,95665.97
2022-10-31T18:53:12.339Z,95663.44
2022-10-31T18:55:43.988Z,95659.66
2022-10-31T18:58:18.542Z,95655.38
2022-10-31T19:00:46.363Z,95656.44
2022-10-31T19:03:14.417Z,95659.09
2022-10-31T19:05:43.176Z,95656.19
2022-10-31T19:08:10.855Z,95655.06
2022-10-31T19:10:40.097Z,95651.31
2022-10-31T19:13:07.315Z,95651.00
2022-10-31T19:15:35.918Z,95641.41
2022-10-31T19:18:03.815Z,95639.28
2022-10-31T19:20:31.476Z,95640.31
2022-10-31T19:23:00.307Z,95641.56
2022-10-31T19:25:27.700Z,95651.16
2022-10-31T19:27:54.736Z,95652.38
2022-10-31T19:30:21.835Z,95662.66
2022-10-31T19:32:48.936Z,95655.41
2022-10-31T19:35:16.096Z,95661.72
2022-10-31T19:37:43.196Z,95660.59
2022-10-31T19:40:12.316Z,95665.81
2022-10-31T19:42:39.397Z,95662.59
2022-10-31T19:45:07.469Z,95659.06
2022-10-31T19:47:34.575Z,95663.25
2022-10-31T19:50:01.679Z,95662.75
2022-10-31T19:52:28.818Z,95671.75
2022-10-31T19:54:55.858Z,95675.41
2022-10-31T19:57:41.999Z,95669.56
2022-10-31T20:00:12.598Z,95671.97
2022-10-31T20:02:39.696Z,95674.28
2022-10-31T20:05:07.439Z,95672.72
2022-10-31T20:07:34.536Z,95667.47
2022-10-31T20:10:01.744Z,95669.81
2022-10-31T20:12:32.597Z,95652.28
2022-10-31T20:14:59.656Z,95654.38
2022-10-31T20:17:26.778Z,95647.97
2022-10-31T20:19:53.898Z,95645.00
2022-10-31T20:22:21.162Z,95647.88
2022-10-31T20:24:48.256Z,95655.69
2022-10-31T20:27:15.319Z,95656.00
2022-10-31T20:29:44.257Z,95657.38
2022-10-31T20:32:11.355Z,95652.88
2022-10-31T20:34:39.505Z,95660.25
2022-10-31T20:37:06.761Z,95666.09
2022-10-31T20:39:33.763Z,95669.81
2022-10-31T20:42:00.918Z,95671.88
2022-10-31T20:44:28.116Z,95681.44
2022-10-31T20:46:56.997Z,95686.66
2022-10-31T20:49:24.137Z,95695.16
2022-10-31T20:51:53.439Z,95687.47
2022-10-31T20:54:20.569Z,95687.91
2022-10-31T20:56:47.783Z,95690.16
2022-10-31T20:59:14.836Z,95689.03
2022-10-31T21:01:42.250Z,95685.59
2022-10-31T21:04:10.916Z,95685.81
2022-10-31T21:06:38.348Z,95686.16
2022-10-31T21:09:06.117Z,95691.13
2022-10-31T21:11:33.415Z,95698.72
2022-10-31T21:14:00.579Z,95705.50
2022-10-31T21:16:30.036Z,95701.72
2022-10-31T21:18:59.397Z,95685.78
2022-10-31T21:21:32.372Z,95695.53
2022-10-31T21:24:02.184Z,95700.47
2022-10-31T21:26:32.357Z,95700.94
2022-10-31T21:29:00.557Z,95696.13
2022-10-31T21:31:27.755Z,95696.81
2022-10-31T21:33:55.537Z,95697.06
2022-10-31T21:36:22.699Z,95702.34
2022-10-31T21:38:52.739Z,95698.56
2022-10-31T21:41:21.436Z,95695.59
2022-10-31T21:43:51.436Z,95693.59
2022-10-31T21:46:20.939Z,95705.31
2022-10-31T21:48:49.521Z,95701.31
2022-10-31T21:51:20.117Z,95702.91
2022-10-31T21:53:48.055Z,95698.69
2022-10-31T21:56:16.963Z,95710.63
2022-10-31T21:58:44.039Z,95709.34
2022-10-31T22:01:11.221Z,95706.81
2022-10-31T22:03:39.918Z,95704.94
2022-10-31T22:06:08.936Z,95710.47
2022-10-31T22:08:36.268Z,95706.00
2022-10-31T22:11:05.116Z,95714.25
2022-10-31T22:13:34.836Z,95710.81
2022-10-31T22:16:02.016Z,95717.03
2022-10-31T22:18:29.276Z,95701.34
2022-10-31T22:21:01.676Z,95703.53
2022-10-31T22:23:29.177Z,95691.13
2022-10-31T22:25:56.335Z,95683.25
2022-10-31T22:28:23.597Z,95682.00
2022-10-31T22:30:52.069Z,95662.81
2022-10-31T22:33:19.230Z,95666.09
2022-10-31T22:35:46.237Z,95672.78
2022-10-31T22:38:13.256Z,95690.03
2022-10-31T22:40:40.270Z,95704.66
2022-10-31T22:43:07.296Z,95700.31
2022-10-31T22:45:34.358Z,95705.94
2022-10-31T22:48:04.022Z,95712.81
2022-10-31T22:50:31.337Z,95722.84
2022-10-31T22:52:58.416Z,95731.94
2022-10-31T22:55:25.436Z,95722.97
2022-10-31T22:57:52.499Z,95719.50
2022-10-31T23:00:20.236Z,95728.81
2022-10-31T23:02:47.336Z,95713.94
2022-10-31T23:05:16.035Z,95694.38
2022-10-31T23:07:43.135Z,95719.59
2022-10-31T23:10:11.514Z,95722.25
2022-10-31T23:12:38.536Z,95702.09
2022-10-31T23:15:06.456Z,95692.53
2022-10-31T23:17:33.536Z,95713.50
2022-10-31T23:20:00.588Z,95722.97
2022-10-31T23:22:29.177Z,95686.69
2022-10-31T23:24:56.236Z,95697.28
2022-10-31T23:27:24.676Z,95694.06
2022-10-31T23:29:54.117Z,95714.13
2022-10-31T23:32:24.556Z,95699.00
2022-10-31T23:34:54.475Z,95704.00
2022-10-31T23:37:28.356Z,95697.09
2022-10-31T23:39:57.496Z,95695.47
2022-10-31T23:42:26.196Z,95702.41
2022-10-31T23:44:53.616Z,95690.09
2022-10-31T23:47:21.797Z,95696.44
2022-10-31T23:49:49.119Z,95704.13
2022-10-31T23:52:16.258Z,95690.88
2022-10-31T23:54:43.560Z,95675.56
2022-10-31T23:57:13.875Z,95689.47
2022-10-31T23:59:40.982Z,95691.88
